NCAR-RAP Real-Time Weather Data

Output produced by METARs form (20 February 2019  18:42 UTC)
found at http://weather.rap.ucar.edu/surface/
 
RJSF 201100Z 36010KT 9999 -SHRA FEW020 SCT030 BKN040 05/03 Q1012
RJSF 201000Z 35012KT 9999 -SHRA FEW020 SCT035 BKN050 06/03 Q1012
RJSF 200900Z 35016KT 9999 VCSH FEW020 BKN050 06/03 Q1012
RJSF 200800Z 36015KT 9999 VCSH FEW020 BKN050 07/03 Q1012
RJSF 200700Z 36017KT 9999 FEW020 SCT025 BKN050 08/04 Q1011
RJSF 200600Z 01018KT 9999 FEW020 BKN025 BKN050 09/05 Q1011
RJSF 200500Z 01017KT 9999 FEW020 SCT025 BKN060 10/05 Q1010
RJSF 200400Z 35017KT 9999 FEW020 SCT025 12/05 Q1010
RJSF 200300Z 01019KT 9999 FEW020 SCT030 12/06 Q1011
RJSF 200200Z 35022KT 9999 FEW020 SCT030 12/06 Q1012
RJSF 200100Z 35023KT 9999 -SHRA FEW020 SCT030 BKN040 12/08 Q1012
RJSF 200000Z 02010KT 9999 FEW020 SCT030 BKN035 10/07 Q1012
RJSF 192300Z 06008KT 020V110 9999 FEW020 SCT040 BKN050 10/07 Q1011
RJSF 192200Z 34012KT 9999 FEW020 SCT035 BKN045 10/06 Q1010
RJSF 192140Z 33017KT 9999 FEW020 SCT035 BKN045 10/06 Q1010 RMK 1CU020 3CU035 6CU045 A2983
RJSF 191100Z 15006KT 5000 BR FEW008 SCT020 OVC080 06/05 Q1013
RJSF 191012Z 17008KT 5000 -RA BR FEW008 OVC070 06/05 Q1014 RMK 1ST008 8AS070 A2996
RJSF 191000Z 16007KT 4000 -RA BR FEW008 OVC070 06/05 Q1015
RJSF 190908Z 16005KT 4000 -RA BR FEW008 OVC070 06/05 Q1015 RMK 1ST008 8AS070 A2999
RJSF 190900Z 15005KT 3000 -RA BR FEW008 OVC070 06/05 Q1015
RJSF 190800Z 16006KT 3000 -RA BR FEW008 BKN020 06/05 Q1017
RJSF 190732Z 17006KT 4000 -RA BR FEW008 BKN020 BKN025 06/06 Q1017 RMK 1ST008 5SC020 7SC025 A3005
RJSF 190700Z 17005KT 8000 -RA BR FEW020 BKN025 BKN030 06/05 Q1017
RJSF 190600Z 17006KT 9999 -RA FEW020 SCT025 OVC080 08/05 Q1018
RJSF 190500Z 18009KT 9999 -RA FEW020 SCT025 BKN030 09/04 Q1019
RJSF 190400Z 20006KT 9999 FEW025 SCT050 OVC070 09/03 Q1019
RJSF 190300Z 24003KT 210V280 9999 FEW025 OVC080 08/01 Q1021
RJSF 190200Z 21003KT 9999 FEW025 OVC100 08/01 Q1022
RJSF 190100Z VRB02KT 9999 FEW005 OVC110 06/01 Q1023
RJSF 190000Z VRB02KT 9999 FEW005 SCT025 BKN130 03/M00 Q1025
RJSF 182300Z VRB01KT 9999 FEW005 SCT025 BKN130 01/M01 Q1025
RJSF 182200Z VRB02KT 9999 FEW005 BKN035 BKN120 M00/M02 Q1025
RJSF 182140Z VRB01KT 9999 FEW004 BKN035 BKN120 M01/M01 Q1024 RMK 1ST004 6CU035 7AC120 A3026
RJSF 181100Z 04002KT 9999 FEW025 02/M02 Q1025
RJSF 181000Z 02008KT 9999 FEW025 03/M02 Q1025
RJSF 180900Z 36012KT 9999 FEW025 03/M02 Q1024
RJSF 180800Z 35015KT 9999 FEW025 05/M02 Q1023
RJSF 180700Z 35016KT 9999 FEW025 06/M01 Q1023